LSGGLYNI

Guest
Details From LSGG - Geneva
To LYNI - NIS
Flight Number -
Tags decoded
Created
Modified
Stats Distance 698 nm / 1,292 km
Max Altitude 0 ft / 0 m
Waypoints 4
Social Downloads 0
Likes 0
Share VATSIM

Download

Looking for another format? Having issues loading an existing format? Contact us
Advertisement - Login to hide

Notes

Requested: LSGG MOLUS JST LYNI

Route

LSGG MOLUS JST LYNI

ID Type Via Altitude Latitude Longitude Leg Dist Tot Dist Heading (true) Name
O LSGG APT - 0 ft / 0 m 46.23775˚ 6.10617˚ - 0 nm - Geneva
MOLUS FIX - 0 ft / 0 m 46.44389˚ 6.67944˚ 26 nm 26 nm 62° / 63° -
JST NDB - 0 ft / 0 m 43.42461˚ 21.63131˚ 659 nm 686 nm 101° / 111° NIS NDB
O LYNI APT - 0 ft / 0 m 43.33675˚ 21.85542˚ 11 nm 697 nm 118° / 118° NIS

Altitude Profile

Advertisement - Login to hide

Weather


0- 5 10 15 20 25 30 35+ Temperature / ° C

Clouds and Precipitation
Forecast for 2017-12-16 00:00 UTC. Updated an hour ago

Ground ~20,000 ft ~40,000 ft Winds

LSGG

Details ICAO LSGG (GVA)
Name Geneva
Region Switzerland
Timezone Europe/Zurich (UTC+1.0)
Stats Elevation 1,410 ft / 430 m (AMSL)
Location 46.237755° 6.106173°
Runways 2
Magnetic Variation 1.738° E

METAR

LSGG 152150Z 29005KT 9999 VCSH FEW020 BKN035 03/01 Q1002 TEMPO 4500 SHRASN

Decode

TAF

TAF LSGG 152025Z 1521/1703 24014KT 9999 FEW025 BKN040 TX04/1615Z TN00/1606Z TEMPO 1521/1523 4500 SHRASN BKN010 BKN020TCU PROB30 TEMPO 1523/1606 2000 SN VV008 TEMPO 1612/1617 33015KT

Decode

Departure Runways

ID Width Length Bearing (true) Bearing (mag) Surface Threshold Offset Overrun Length
05 180 ft / 55 m 12,796 ft / 3,900 m 45.43° 43.69° Concrete 1,079 ft / 329 m 66 ft / 20 m
05L 98 ft / 30 m 2,701 ft / 823 m 45.44° 43.70° Grass 610 ft / 186 m 0 ft / 0 m
23 180 ft / 55 m 12,796 ft / 3,900 m 225.45° 223.71° Concrete 0 ft / 0 m 66 ft / 20 m
23R 98 ft / 30 m 2,701 ft / 823 m 225.45° 223.71° Grass 997 ft / 304 m 0 ft / 0 m

LYNI

Details ICAO LYNI (INI)
Name NIS
Region Serbia and Montenegro
Timezone Europe/Belgrade (UTC+1.0)
Stats Elevation 648 ft / 198 m (AMSL)
Location 43.336748° 21.855417°
Runways 1
Magnetic Variation 4.767° E

METAR

LYNI 152200Z 12008KT 090V150 9999 SCT043 13/04 Q1002

Decode

TAF

TAF LYNI 151700Z 1518/1618 16005KT 9999 BKN040 TX12/1518Z TN03/1618Z TEMPO 1519/1603 16012G25KT BECMG 1610/1612 30010KT 5000 RA BKN013 BKN027 TEMPO 1612/1616 32022G35KT

Decode

Destination Runways

ID Width Length Bearing (true) Bearing (mag) Surface Threshold Offset Overrun Length
11 148 ft / 45 m 8,187 ft / 2,495 m 113.61° 108.84° Asphalt 719 ft / 219 m 0 ft / 0 m
29 148 ft / 45 m 8,187 ft / 2,495 m 293.63° 288.86° Asphalt 985 ft / 300 m 0 ft / 0 m

Popular Alternatives